Time;durP1;ratioP1;P1;durP2;ratioP2;P2;SDS_P1;SDS_P2;PMS_P1;PMS_P2;Temp;Humidity;BMP_temperature;BMP_pressure;BME280_temperature;BME280_humidity;BME280_pressure;Samples;Min_cycle;Max_cycle;Signal;HPM_P1;HPM_P2
2023/12/19 00:04:24;;;;;;;28.27;19.63;;;;;;;;;;10289702;28;20038;-67
2023/12/19 00:09:25;;;;;;;26.27;19.25;;;;;;;;;;10288946;28;20047;-69
2023/12/19 00:14:26;;;;;;;28.23;19.73;;;;;;;;;;10289026;28;20030;-66
2023/12/19 00:19:26;;;;;;;29.52;18.70;;;;;;;;;;10287231;28;20035;-67
2023/12/19 00:24:27;;;;;;;24.67;18.17;;;;;;;;;;10287775;28;20035;-67
2023/12/19 00:29:28;;;;;;;30.35;18.85;;;;;;;;;;10288349;28;20026;-68
2023/12/19 00:34:28;;;;;;;31.42;17.80;;;;;;;;;;10287183;28;20027;-66
2023/12/19 00:39:29;;;;;;;25.23;17.73;;;;;;;;;;10287874;28;20054;-66
2023/12/19 00:44:29;;;;;;;26.77;17.98;;;;;;;;;;10279627;28;20228;-65
2023/12/19 00:49:30;;;;;;;23.95;17.63;;;;;;;;;;10270189;28;20049;-65
2023/12/19 00:54:31;;;;;;;25.70;18.13;;;;;;;;;;10268710;28;20031;-66
2023/12/19 00:59:31;;;;;;;23.65;17.10;;;;;;;;;;10270615;28;20039;-66
2023/12/19 01:04:32;;;;;;;30.15;18.00;;;;;;;;;;10269945;28;20097;-66
2023/12/19 01:09:32;;;;;;;23.77;17.08;;;;;;;;;;10268915;28;20034;-66
2023/12/19 01:14:33;;;;;;;29.63;18.10;;;;;;;;;;10269708;28;20073;-65
2023/12/19 01:19:34;;;;;;;25.83;16.48;;;;;;;;;;10268401;28;20034;-64
2023/12/19 01:24:35;;;;;;;22.67;17.02;;;;;;;;;;10268826;28;20489;-64
2023/12/19 01:29:35;;;;;;;23.35;15.13;;;;;;;;;;10268924;28;20443;-65
2023/12/19 01:34:36;;;;;;;25.13;16.92;;;;;;;;;;10275554;28;20463;-63
2023/12/19 01:39:36;;;;;;;19.88;15.68;;;;;;;;;;10286076;28;20033;-64
2023/12/19 01:44:37;;;;;;;20.92;15.18;;;;;;;;;;10286256;28;20385;-67
2023/12/19 01:49:38;;;;;;;21.20;14.90;;;;;;;;;;10286501;28;20026;-67
2023/12/19 01:54:39;;;;;;;19.90;15.65;;;;;;;;;;10285648;28;20039;-67
2023/12/19 01:59:40;;;;;;;24.20;16.88;;;;;;;;;;10298248;23;20113;-56
2023/12/19 02:04:41;;;;;;;18.60;15.38;;;;;;;;;;10268850;28;20527;-65
2023/12/19 02:09:41;;;;;;;22.30;15.50;;;;;;;;;;10285632;28;20030;-64
2023/12/19 02:14:43;;;;;;;18.40;14.93;;;;;;;;;;10285784;28;20494;-63
2023/12/19 02:19:48;;;;;;;19.23;14.65;;;;;;;;;;10285673;28;20038;-60
2023/12/19 02:24:49;;;;;;;25.98;15.63;;;;;;;;;;10285728;28;20022;-63
2023/12/19 02:29:50;;;;;;;19.70;14.70;;;;;;;;;;10268422;28;20038;-62
2023/12/19 02:34:50;;;;;;;22.70;14.40;;;;;;;;;;10285357;28;20498;-64
2023/12/19 02:39:51;;;;;;;18.38;14.13;;;;;;;;;;10285005;28;20368;-63
2023/12/19 02:44:51;;;;;;;19.65;14.27;;;;;;;;;;10288584;28;20061;-63
2023/12/19 02:49:52;;;;;;;19.92;14.75;;;;;;;;;;10291493;28;20035;-61
2023/12/19 02:54:53;;;;;;;19.88;14.40;;;;;;;;;;10292600;28;20107;-63
2023/12/19 02:59:53;;;;;;;18.70;14.20;;;;;;;;;;10291926;28;20042;-62
2023/12/19 03:04:54;;;;;;;20.25;14.25;;;;;;;;;;10291929;28;20027;-61
2023/12/19 03:09:55;;;;;;;15.23;13.48;;;;;;;;;;10291575;28;20547;-63
2023/12/19 03:14:55;;;;;;;19.67;14.55;;;;;;;;;;10291352;28;20023;-61
2023/12/19 03:19:56;;;;;;;17.05;13.05;;;;;;;;;;10291434;28;20034;-63
2023/12/19 03:24:56;;;;;;;17.20;13.80;;;;;;;;;;10290727;28;20034;-62
2023/12/19 03:29:57;;;;;;;19.27;13.60;;;;;;;;;;10291354;28;20034;-63
2023/12/19 03:34:58;;;;;;;17.40;14.05;;;;;;;;;;10290903;28;20038;-63
2023/12/19 03:39:58;;;;;;;20.58;13.20;;;;;;;;;;10290946;28;20506;-62
2023/12/19 03:45:00;;;;;;;18.25;13.90;;;;;;;;;;10290295;28;20478;-63
2023/12/19 03:50:00;;;;;;;16.52;13.02;;;;;;;;;;10290257;28;20035;-63
2023/12/19 03:55:02;;;;;;;16.92;13.23;;;;;;;;;;10289805;28;20030;-65
2023/12/19 04:00:04;;;;;;;21.45;12.70;;;;;;;;;;10289729;28;20059;-63
2023/12/19 04:05:05;;;;;;;15.00;11.80;;;;;;;;;;10289877;28;20023;-64
2023/12/19 04:10:06;;;;;;;17.88;12.73;;;;;;;;;;10289080;28;20027;-64
2023/12/19 04:15:08;;;;;;;16.08;11.95;;;;;;;;;;10289184;28;20033;-63
2023/12/19 04:20:10;;;;;;;17.00;13.18;;;;;;;;;;10288482;28;20379;-61
2023/12/19 04:25:11;;;;;;;15.88;12.23;;;;;;;;;;10289224;28;20387;-60
2023/12/19 04:30:12;;;;;;;22.70;11.90;;;;;;;;;;10288279;28;20037;-62
2023/12/19 04:35:12;;;;;;;16.30;12.10;;;;;;;;;;10288747;28;20045;-60
2023/12/19 04:40:13;;;;;;;15.43;11.82;;;;;;;;;;10287850;28;20030;-57
2023/12/19 04:45:14;;;;;;;14.70;11.50;;;;;;;;;;10288044;28;20026;-62
2023/12/19 04:50:14;;;;;;;13.77;10.95;;;;;;;;;;10287818;28;20039;-62
2023/12/19 04:55:15;;;;;;;14.40;11.60;;;;;;;;;;10287226;28;20042;-62
2023/12/19 05:00:16;;;;;;;13.80;11.48;;;;;;;;;;10287095;28;20110;-64
2023/12/19 05:05:16;;;;;;;15.52;11.38;;;;;;;;;;10287617;28;20360;-62
2023/12/19 05:10:17;;;;;;;16.65;12.75;;;;;;;;;;10287666;28;20482;-63
2023/12/19 05:15:17;;;;;;;16.33;11.52;;;;;;;;;;10286618;28;20394;-61
2023/12/19 05:20:18;;;;;;;14.70;11.75;;;;;;;;;;10286815;28;20026;-59
2023/12/19 05:25:19;;;;;;;14.25;10.93;;;;;;;;;;10269550;28;20292;-64
2023/12/19 05:30:19;;;;;;;14.15;10.65;;;;;;;;;;10286414;28;20023;-61
2023/12/19 05:35:21;;;;;;;16.35;11.38;;;;;;;;;;10286618;28;20049;-64
2023/12/19 05:40:21;;;;;;;15.13;11.48;;;;;;;;;;10286028;28;20398;-60
2023/12/19 05:45:22;;;;;;;13.13;10.25;;;;;;;;;;10286283;28;20027;-65
2023/12/19 05:50:22;;;;;;;14.07;10.75;;;;;;;;;;10286697;28;20033;-64
2023/12/19 05:55:23;;;;;;;14.93;10.77;;;;;;;;;;10285759;28;20038;-58
2023/12/19 06:00:24;;;;;;;13.73;10.55;;;;;;;;;;10285647;28;20366;-62
2023/12/19 06:05:25;;;;;;;13.60;9.75;;;;;;;;;;10268420;28;20319;-65
2023/12/19 06:10:25;;;;;;;12.60;10.50;;;;;;;;;;10285901;28;20501;-61
2023/12/19 06:15:26;;;;;;;13.88;9.63;;;;;;;;;;10285774;28;20027;-64
2023/12/19 06:20:26;;;;;;;11.13;9.73;;;;;;;;;;10290494;28;20030;-65
2023/12/19 06:25:27;;;;;;;13.30;9.77;;;;;;;;;;10292454;28;20102;-60
2023/12/19 06:30:27;;;;;;;11.98;9.65;;;;;;;;;;10293233;28;20027;-64
2023/12/19 06:35:30;;;;;;;25.33;10.75;;;;;;;;;;10292242;28;20030;-62
2023/12/19 06:40:31;;;;;;;15.25;12.43;;;;;;;;;;10291914;28;20023;-62
2023/12/19 06:45:33;;;;;;;15.93;12.50;;;;;;;;;;10292807;28;20023;-64
2023/12/19 06:50:33;;;;;;;24.00;11.80;;;;;;;;;;10292372;28;20037;-58
2023/12/19 06:55:34;;;;;;;15.98;11.70;;;;;;;;;;10291969;28;20042;-62
2023/12/19 07:00:35;;;;;;;17.92;12.07;;;;;;;;;;10292289;28;20047;-64
2023/12/19 07:05:35;;;;;;;23.08;13.23;;;;;;;;;;10291611;28;20390;-61
2023/12/19 07:10:36;;;;;;;23.73;12.40;;;;;;;;;;10292175;28;20042;-58
2023/12/19 07:15:36;;;;;;;20.45;13.43;;;;;;;;;;10291205;28;20538;-53
2023/12/19 07:20:37;;;;;;;23.10;13.65;;;;;;;;;;10291806;28;20061;-52
2023/12/19 07:25:37;;;;;;;22.52;13.88;;;;;;;;;;10291671;28;20033;-55
2023/12/19 07:30:39;;;;;;;15.40;12.48;;;;;;;;;;10290959;28;20026;-51
2023/12/19 07:35:41;;;;;;;23.00;14.30;;;;;;;;;;10291592;28;20191;-51
2023/12/19 07:40:41;;;;;;;24.63;12.52;;;;;;;;;;10291774;28;20123;-50
2023/12/19 07:45:42;;;;;;;25.65;13.57;;;;;;;;;;10290663;28;20023;-49
2023/12/19 07:50:42;;;;;;;21.05;14.07;;;;;;;;;;10290350;28;20474;-48
2023/12/19 07:55:43;;;;;;;20.00;12.80;;;;;;;;;;10291002;28;20045;-56
2023/12/19 08:00:44;;;;;;;24.27;13.77;;;;;;;;;;10289796;28;20496;-60
2023/12/19 08:05:52;;;;;;;23.95;12.68;;;;;;;;;;10290105;28;20363;-60
2023/12/19 08:10:53;;;;;;;24.40;12.80;;;;;;;;;;10290026;28;20037;-58
2023/12/19 08:15:53;;;;;;;18.77;13.38;;;;;;;;;;10289621;28;20427;-58
2023/12/19 08:20:54;;;;;;;16.75;12.45;;;;;;;;;;10289231;28;20451;-61
2023/12/19 08:25:54;;;;;;;18.65;13.05;;;;;;;;;;10289270;28;20386;-61
2023/12/19 08:30:55;;;;;;;21.92;13.18;;;;;;;;;;10288884;28;20356;-58
2023/12/19 08:35:55;;;;;;;20.05;12.90;;;;;;;;;;10289040;28;20030;-60
2023/12/19 08:40:56;;;;;;;19.35;12.23;;;;;;;;;;10287189;28;20022;-59
2023/12/19 08:45:57;;;;;;;22.60;12.55;;;;;;;;;;10288212;28;20031;-61
2023/12/19 08:50:57;;;;;;;16.02;12.48;;;;;;;;;;10272689;28;20097;-60
2023/12/19 08:55:58;;;;;;;18.25;12.98;;;;;;;;;;10270429;28;20034;-60
2023/12/19 09:00:58;;;;;;;21.73;12.77;;;;;;;;;;10269880;28;20095;-60
2023/12/19 09:06:01;;;;;;;18.75;13.23;;;;;;;;;;10270767;28;20509;-61
2023/12/19 09:11:01;;;;;;;20.50;12.70;;;;;;;;;;10270282;28;20026;-59
2023/12/19 09:16:04;;;;;;;16.63;12.07;;;;;;;;;;10269833;28;20031;-60
2023/12/19 09:21:06;;;;;;;17.70;11.95;;;;;;;;;;10269854;28;20109;-61
2023/12/19 09:26:06;;;;;;;18.65;12.25;;;;;;;;;;10269591;28;20240;-59
2023/12/19 09:31:09;;;;;;;16.38;12.52;;;;;;;;;;10269743;28;20271;-57
2023/12/19 09:36:22;;;;;;;17.23;11.57;;;;;;;;;;10269039;28;20390;-60
2023/12/19 09:41:24;;;;;;;16.20;12.18;;;;;;;;;;10269270;28;20030;-53
2023/12/19 09:46:25;;;;;;;15.50;11.43;;;;;;;;;;10269333;28;20033;-59
2023/12/19 09:51:32;;;;;;;20.60;11.68;;;;;;;;;;10269634;28;20061;-49
2023/12/19 09:56:33;;;;;;;16.02;11.20;;;;;;;;;;10269429;28;20030;-57
2023/12/19 10:01:33;;;;;;;15.90;11.52;;;;;;;;;;10268359;28;20130;-55
2023/12/19 10:06:36;;;;;;;18.08;12.32;;;;;;;;;;10280582;28;20034;-56
2023/12/19 10:11:38;;;;;;;15.38;11.23;;;;;;;;;;10281255;28;20426;-58
2023/12/19 10:16:42;;;;;;;17.58;10.80;;;;;;;;;;10286159;28;20058;-51
2023/12/19 10:21:43;;;;;;;15.77;10.48;;;;;;;;;;10265805;28;20122;-62
2023/12/19 10:26:44;;;;;;;20.20;11.43;;;;;;;;;;10283973;28;20039;-54
2023/12/19 10:31:44;;;;;;;13.40;9.95;;;;;;;;;;10284412;28;20498;-56
2023/12/19 10:36:45;;;;;;;14.30;9.88;;;;;;;;;;10266110;28;20026;-51
2023/12/19 10:41:45;;;;;;;13.25;9.93;;;;;;;;;;10283695;28;20027;-60
2023/12/19 10:46:47;;;;;;;12.70;10.30;;;;;;;;;;10284535;28;20033;-57
2023/12/19 10:51:53;;;;;;;14.65;9.52;;;;;;;;;;10285284;28;20442;-55
2023/12/19 10:57:08;;;;;;;14.93;10.82;;;;;;;;;;10260360;28;20110;-60
2023/12/19 11:02:39;;;;;;;15.52;10.45;;;;;;;;;;10280092;28;20043;-61
2023/12/19 11:07:42;;;;;;;13.48;10.05;;;;;;;;;;10291689;28;20034;-53
2023/12/19 11:12:45;;;;;;;12.15;9.27;;;;;;;;;;10291411;28;20065;-62
2023/12/19 11:18:14;;;;;;;12.32;9.40;;;;;;;;;;10271725;28;20045;-57
2023/12/19 11:23:42;;;;;;;10.43;8.65;;;;;;;;;;10275978;28;20046;-57
2023/12/19 11:28:43;;;;;;;11.65;9.40;;;;;;;;;;10275840;28;20034;-56
2023/12/19 11:33:44;;;;;;;12.38;9.43;;;;;;;;;;10291565;28;20034;-61
2023/12/19 11:38:46;;;;;;;12.35;9.02;;;;;;;;;;10268255;28;20027;-55
2023/12/19 11:43:49;;;;;;;16.10;9.73;;;;;;;;;;10273421;28;20023;-61
2023/12/19 11:48:51;;;;;;;13.68;9.57;;;;;;;;;;10280925;28;20031;-61
2023/12/19 11:53:53;;;;;;;11.20;9.05;;;;;;;;;;10284003;28;20031;-58
2023/12/19 11:58:54;;;;;;;10.80;8.75;;;;;;;;;;10288938;28;20575;-58
2023/12/19 12:04:10;;;;;;;13.02;8.90;;;;;;;;;;10290578;28;20042;-57
2023/12/19 12:09:11;;;;;;;14.05;9.30;;;;;;;;;;10274811;28;20049;-60
2023/12/19 12:14:11;;;;;;;14.32;8.80;;;;;;;;;;10277997;28;20390;-58
2023/12/19 12:19:18;;;;;;;13.18;9.23;;;;;;;;;;10275316;28;20251;-58
2023/12/19 12:24:23;;;;;;;11.95;8.80;;;;;;;;;;10277779;28;20056;-59
2023/12/19 12:29:36;;;;;;;11.75;8.68;;;;;;;;;;10271809;28;20027;-57
2023/12/19 12:34:37;;;;;;;13.85;8.68;;;;;;;;;;10275256;28;20136;-60
2023/12/19 12:39:38;;;;;;;11.50;8.95;;;;;;;;;;10288286;28;20525;-59
2023/12/19 12:44:38;;;;;;;11.82;8.73;;;;;;;;;;10288959;28;20538;-59
2023/12/19 12:49:39;;;;;;;12.85;9.15;;;;;;;;;;10283728;28;20089;-55
2023/12/19 12:54:39;;;;;;;12.13;8.77;;;;;;;;;;10287240;28;20034;-57
2023/12/19 12:59:40;;;;;;;9.80;8.52;;;;;;;;;;10281599;28;20062;-51
2023/12/19 13:04:41;;;;;;;12.38;8.55;;;;;;;;;;10277610;28;20034;-60
2023/12/19 13:09:41;;;;;;;13.60;9.23;;;;;;;;;;10278397;28;20018;-60
2023/12/19 13:14:42;;;;;;;10.13;8.38;;;;;;;;;;10269566;28;20037;-50
2023/12/19 13:19:43;;;;;;;11.63;7.93;;;;;;;;;;10269981;28;20053;-60
2023/12/19 13:24:43;;;;;;;12.75;8.75;;;;;;;;;;10268275;28;20590;-58
2023/12/19 13:29:44;;;;;;;11.23;7.68;;;;;;;;;;10267388;28;20514;-56
2023/12/19 13:34:44;;;;;;;13.05;8.35;;;;;;;;;;10274505;28;20045;-60
2023/12/19 13:39:45;;;;;;;13.70;8.80;;;;;;;;;;10285240;28;20027;-59
2023/12/19 13:44:46;;;;;;;11.77;7.45;;;;;;;;;;10278365;28;20023;-60
2023/12/19 13:49:47;;;;;;;11.85;7.85;;;;;;;;;;10282584;28;20037;-60
2023/12/19 13:54:48;;;;;;;9.88;7.57;;;;;;;;;;10285070;28;20387;-54
2023/12/19 13:59:48;;;;;;;11.38;8.25;;;;;;;;;;10281030;28;20070;-61
2023/12/19 14:04:49;;;;;;;9.07;7.50;;;;;;;;;;10274917;28;20042;-61
2023/12/19 14:09:50;;;;;;;11.05;8.20;;;;;;;;;;10269515;28;20026;-61
2023/12/19 14:14:51;;;;;;;10.80;7.95;;;;;;;;;;10285112;28;20414;-59
2023/12/19 14:19:51;;;;;;;11.73;7.47;;;;;;;;;;10335106;23;20042;-60
2023/12/19 14:24:52;;;;;;;13.55;7.90;;;;;;;;;;10284357;28;20482;-61
2023/12/19 14:29:53;;;;;;;14.63;7.85;;;;;;;;;;10280388;28;20475;-59
2023/12/19 14:34:53;;;;;;;12.15;7.40;;;;;;;;;;10285860;28;20026;-53
2023/12/19 14:39:56;;;;;;;11.55;7.40;;;;;;;;;;10286264;28;20035;-52
2023/12/19 14:44:57;;;;;;;9.23;6.97;;;;;;;;;;10292477;28;20495;-59
2023/12/19 14:49:57;;;;;;;11.25;7.50;;;;;;;;;;10282869;28;20030;-61
2023/12/19 14:54:58;;;;;;;8.77;7.05;;;;;;;;;;10290841;28;20033;-57
2023/12/19 14:59:58;;;;;;;8.48;6.80;;;;;;;;;;10280873;28;20054;-60
2023/12/19 15:04:59;;;;;;;12.95;7.00;;;;;;;;;;10292540;28;20058;-59
2023/12/19 15:10:00;;;;;;;11.15;7.10;;;;;;;;;;10289857;28;20415;-59
2023/12/19 15:15:00;;;;;;;9.23;6.65;;;;;;;;;;10272592;28;20414;-56
2023/12/19 15:20:03;;;;;;;8.75;6.50;;;;;;;;;;10272484;28;20031;-57
2023/12/19 15:25:05;;;;;;;8.88;6.72;;;;;;;;;;10280430;28;20041;-54
2023/12/19 15:30:08;;;;;;;8.40;6.95;;;;;;;;;;10290937;28;20376;-58
2023/12/19 15:35:08;;;;;;;7.63;6.28;;;;;;;;;;10291339;28;20114;-59
2023/12/19 15:40:11;;;;;;;15.35;7.43;;;;;;;;;;10291590;28;20113;-60
2023/12/19 15:45:12;;;;;;;13.00;6.78;;;;;;;;;;10291598;28;20030;-61
2023/12/19 15:50:13;;;;;;;11.43;7.13;;;;;;;;;;10290476;28;20027;-60
2023/12/19 15:55:13;;;;;;;13.15;6.63;;;;;;;;;;10277968;28;20031;-61
2023/12/19 16:00:15;;;;;;;9.15;6.75;;;;;;;;;;10272117;28;20023;-60
2023/12/19 16:05:17;;;;;;;8.60;6.20;;;;;;;;;;10270925;28;20420;-60
2023/12/19 16:10:17;;;;;;;9.45;6.80;;;;;;;;;;10270822;28;20666;-49
2023/12/19 16:15:18;;;;;;;10.32;6.45;;;;;;;;;;10274911;28;20033;-62
2023/12/19 16:20:20;;;;;;;9.27;6.43;;;;;;;;;;10272009;28;20054;-61
2023/12/19 16:25:20;;;;;;;9.25;5.93;;;;;;;;;;10270530;28;20053;-60
2023/12/19 16:30:21;;;;;;;8.98;6.40;;;;;;;;;;10270573;28;20027;-59
2023/12/19 16:35:21;;;;;;;10.65;7.03;;;;;;;;;;10269490;28;20077;-61
2023/12/19 16:40:22;;;;;;;9.50;6.35;;;;;;;;;;10271424;28;20061;-57
2023/12/19 16:45:23;;;;;;;8.20;6.38;;;;;;;;;;10279488;28;20034;-61
2023/12/19 16:50:24;;;;;;;9.30;6.03;;;;;;;;;;10285794;28;20037;-61
2023/12/19 16:55:24;;;;;;;8.38;6.60;;;;;;;;;;10288099;28;20038;-64
2023/12/19 17:00:25;;;;;;;11.77;6.50;;;;;;;;;;10288285;28;20023;-65
2023/12/19 17:05:27;;;;;;;9.80;6.30;;;;;;;;;;10287431;28;20149;-60
2023/12/19 17:10:28;;;;;;;8.57;6.65;;;;;;;;;;10287852;28;20042;-61
2023/12/19 17:15:29;;;;;;;8.00;6.10;;;;;;;;;;10287859;28;20031;-62
2023/12/19 17:20:29;;;;;;;11.38;6.75;;;;;;;;;;10287571;28;20154;-65
2023/12/19 17:25:30;;;;;;;7.90;6.15;;;;;;;;;;10287989;28;20471;-63
2023/12/19 17:30:30;;;;;;;10.30;6.32;;;;;;;;;;10287562;28;20426;-63
2023/12/19 17:35:31;;;;;;;11.25;6.40;;;;;;;;;;10285926;28;20367;-63
2023/12/19 17:40:31;;;;;;;10.25;6.70;;;;;;;;;;10268122;28;20505;-61
2023/12/19 17:45:32;;;;;;;12.20;6.47;;;;;;;;;;10274703;28;20486;-63
2023/12/19 17:50:32;;;;;;;9.38;6.10;;;;;;;;;;10274853;28;20483;-58
2023/12/19 17:55:33;;;;;;;8.88;6.28;;;;;;;;;;10273382;28;20493;-62
2023/12/19 18:00:34;;;;;;;10.55;5.93;;;;;;;;;;10275403;28;20156;-60
2023/12/19 18:05:34;;;;;;;18.73;6.65;;;;;;;;;;10284558;28;20103;-61
2023/12/19 18:10:35;;;;;;;10.43;5.85;;;;;;;;;;10274546;28;20023;-61
2023/12/19 18:15:35;;;;;;;9.70;6.57;;;;;;;;;;10271272;28;20090;-51
2023/12/19 18:20:36;;;;;;;11.05;6.63;;;;;;;;;;10274295;28;20047;-55
2023/12/19 18:25:38;;;;;;;10.10;5.80;;;;;;;;;;10275176;28;20022;-56
2023/12/19 18:30:38;;;;;;;12.55;7.13;;;;;;;;;;10274451;28;20031;-55
2023/12/19 18:35:40;;;;;;;10.63;6.78;;;;;;;;;;10274545;28;20063;-60
2023/12/19 18:40:41;;;;;;;10.30;6.72;;;;;;;;;;10273616;28;20607;-54
2023/12/19 18:45:43;;;;;;;10.82;6.90;;;;;;;;;;10273855;28;20051;-54
2023/12/19 18:50:44;;;;;;;9.77;6.57;;;;;;;;;;10273817;28;20414;-58
2023/12/19 18:55:44;;;;;;;9.40;5.93;;;;;;;;;;10284246;28;20034;-57
2023/12/19 19:00:45;;;;;;;10.77;7.28;;;;;;;;;;10290871;28;20031;-61
2023/12/19 19:05:46;;;;;;;11.98;7.10;;;;;;;;;;10291819;28;20031;-53
2023/12/19 19:10:46;;;;;;;13.95;7.20;;;;;;;;;;10291959;28;20034;-61
2023/12/19 19:15:47;;;;;;;13.05;7.10;;;;;;;;;;10288608;28;20521;-62
2023/12/19 19:20:48;;;;;;;10.63;6.95;;;;;;;;;;10288808;28;20513;-63
2023/12/19 19:25:48;;;;;;;11.32;6.88;;;;;;;;;;10284275;28;20041;-62
2023/12/19 19:30:51;;;;;;;14.75;8.25;;;;;;;;;;10287720;28;20479;-56
2023/12/19 19:35:52;;;;;;;14.40;9.13;;;;;;;;;;10286927;28;20031;-63
2023/12/19 19:40:55;;;;;;;15.43;9.70;;;;;;;;;;10291192;28;20508;-58
2023/12/19 19:46:01;;;;;;;13.52;8.30;;;;;;;;;;10291425;28;20035;-59
2023/12/19 19:51:03;;;;;;;16.13;8.30;;;;;;;;;;10291361;28;20088;-62
2023/12/19 19:56:06;;;;;;;13.80;8.95;;;;;;;;;;10291014;28;20035;-57
2023/12/19 20:01:08;;;;;;;14.23;8.45;;;;;;;;;;10290616;28;20030;-61
2023/12/19 20:06:08;;;;;;;14.10;8.93;;;;;;;;;;10290633;28;20162;-62
2023/12/19 20:11:09;;;;;;;12.88;8.65;;;;;;;;;;10290608;28;20356;-61
2023/12/19 20:16:09;;;;;;;27.10;8.57;;;;;;;;;;10288866;28;20521;-63
2023/12/19 20:21:10;;;;;;;25.40;9.13;;;;;;;;;;10288121;28;20043;-62
2023/12/19 20:26:11;;;;;;;25.85;9.48;;;;;;;;;;10284428;28;20121;-61
2023/12/19 20:31:14;;;;;;;21.80;9.32;;;;;;;;;;10255888;28;20042;-63
2023/12/19 20:36:16;;;;;;;25.27;9.80;;;;;;;;;;10285431;28;20438;-60
2023/12/19 20:41:17;;;;;;;35.03;9.73;;;;;;;;;;10269835;28;20076;-63
2023/12/19 20:46:18;;;;;;;17.63;9.13;;;;;;;;;;10271241;28;20576;-63
2023/12/19 20:51:19;;;;;;;16.23;7.80;;;;;;;;;;10286161;28;20026;-63
2023/12/19 20:56:20;;;;;;;18.58;8.60;;;;;;;;;;10284057;28;20034;-62
2023/12/19 21:01:20;;;;;;;18.08;8.02;;;;;;;;;;10267361;28;20458;-64
2023/12/19 21:06:21;;;;;;;14.63;8.40;;;;;;;;;;10287213;28;20295;-62
2023/12/19 21:11:24;;;;;;;16.40;8.18;;;;;;;;;;10283277;28;20375;-62
2023/12/19 21:16:25;;;;;;;14.68;8.00;;;;;;;;;;10286696;28;20035;-60
2023/12/19 21:21:27;;;;;;;16.48;7.78;;;;;;;;;;10286007;28;20038;-60
2023/12/19 21:26:27;;;;;;;17.83;8.43;;;;;;;;;;10286241;28;20031;-64
2023/12/19 21:31:28;;;;;;;14.23;7.68;;;;;;;;;;10282258;28;20031;-64
2023/12/19 21:36:29;;;;;;;22.17;7.82;;;;;;;;;;10279654;28;20035;-65
2023/12/19 21:41:29;;;;;;;19.75;8.35;;;;;;;;;;10284422;28;20030;-59
2023/12/19 21:46:30;;;;;;;12.88;7.35;;;;;;;;;;10284959;28;20110;-62
2023/12/19 21:51:35;;;;;;;13.85;7.90;;;;;;;;;;10284990;28;20478;-64
2023/12/19 21:56:37;;;;;;;15.88;7.93;;;;;;;;;;10285601;28;20045;-60
2023/12/19 22:01:38;;;;;;;15.18;7.68;;;;;;;;;;10286432;28;20510;-62
2023/12/19 22:06:41;;;;;;;16.40;8.15;;;;;;;;;;10286595;28;20027;-64
2023/12/19 22:11:41;;;;;;;13.60;7.50;;;;;;;;;;10285681;28;20037;-60
2023/12/19 22:16:42;;;;;;;11.18;7.38;;;;;;;;;;10285011;28;20041;-57
2023/12/19 22:21:43;;;;;;;18.23;8.63;;;;;;;;;;10284991;28;20047;-61
2023/12/19 22:26:43;;;;;;;14.98;8.77;;;;;;;;;;10284125;28;20419;-62
2023/12/19 22:31:44;;;;;;;26.20;10.57;;;;;;;;;;10284645;28;20027;-62
2023/12/19 22:36:45;;;;;;;22.50;9.65;;;;;;;;;;10284885;28;20035;-61
2023/12/19 22:41:45;;;;;;;19.73;10.32;;;;;;;;;;10285074;28;20038;-63
2023/12/19 22:46:46;;;;;;;18.38;9.82;;;;;;;;;;10283479;28;20358;-64
2023/12/19 22:51:46;;;;;;;22.98;9.90;;;;;;;;;;10285268;28;20451;-62
2023/12/19 22:56:47;;;;;;;18.75;11.70;;;;;;;;;;10283795;28;20031;-57
2023/12/19 23:01:48;;;;;;;20.20;11.35;;;;;;;;;;10285680;28;20019;-58
2023/12/19 23:06:48;;;;;;;17.10;11.13;;;;;;;;;;10285507;28;20027;-63
2023/12/19 23:11:49;;;;;;;18.40;10.05;;;;;;;;;;10290802;28;20034;-65
2023/12/19 23:16:49;;;;;;;23.67;9.90;;;;;;;;;;10289339;28;20390;-58
2023/12/19 23:21:50;;;;;;;17.95;9.68;;;;;;;;;;10286957;28;20399;-65
2023/12/19 23:26:51;;;;;;;17.05;9.30;;;;;;;;;;10292078;28;20023;-61
2023/12/19 23:31:52;;;;;;;17.45;9.57;;;;;;;;;;10289647;28;20386;-62
2023/12/19 23:36:52;;;;;;;18.45;9.82;;;;;;;;;;10284903;28;20031;-60
2023/12/19 23:41:53;;;;;;;16.80;9.75;;;;;;;;;;10289281;28;20034;-65
2023/12/19 23:46:54;;;;;;;16.05;9.27;;;;;;;;;;10287481;28;20031;-65
2023/12/19 23:51:55;;;;;;;19.55;9.93;;;;;;;;;;10290199;28;20496;-66
2023/12/19 23:56:56;;;;;;;18.73;10.18;;;;;;;;;;10291044;28;20031;-66
